createdAt,value
2023-04-26T00:02:18.852Z,0.50
2023-04-26T00:04:47.640Z,0.47
2023-04-26T00:07:15.943Z,0.52
2023-04-26T00:09:44.588Z,0.40
2023-04-26T00:12:12.060Z,0.43
2023-04-26T00:14:39.630Z,0.47
2023-04-26T00:17:06.781Z,0.40
2023-04-26T00:19:33.725Z,0.50
2023-04-26T00:22:00.734Z,0.47
2023-04-26T00:24:28.012Z,0.52
2023-04-26T00:26:55.894Z,0.70
2023-04-26T00:29:23.220Z,0.47
2023-04-26T00:31:50.425Z,0.60
2023-04-26T00:34:17.585Z,0.50
2023-04-26T00:36:44.448Z,0.60
2023-04-26T00:39:11.407Z,0.57
2023-04-26T00:41:38.422Z,0.60
2023-04-26T00:44:06.249Z,0.65
2023-04-26T00:46:33.178Z,0.70
2023-04-26T00:49:00.678Z,0.63
2023-04-26T00:51:28.357Z,0.77
2023-04-26T00:53:56.098Z,0.50
2023-04-26T00:56:24.963Z,0.70
2023-04-26T00:58:52.340Z,0.70
2023-04-26T01:01:20.008Z,0.80
2023-04-26T01:03:48.257Z,0.77
2023-04-26T01:06:16.003Z,0.80
2023-04-26T01:08:43.704Z,0.55
2023-04-26T01:11:11.756Z,0.52
2023-04-26T01:13:40.440Z,0.70
2023-04-26T01:16:08.422Z,0.60
2023-04-26T01:18:36.140Z,0.60
2023-04-26T01:21:05.117Z,0.80
2023-04-26T01:23:32.577Z,0.75
2023-04-26T01:25:59.514Z,0.70
2023-04-26T01:28:26.837Z,0.70
2023-04-26T01:30:54.794Z,0.70
2023-04-26T01:33:22.122Z,0.80
2023-04-26T01:35:49.020Z,0.52
2023-04-26T01:38:17.938Z,0.80
2023-04-26T01:40:46.317Z,0.63
2023-04-26T01:43:13.267Z,0.70
2023-04-26T01:45:40.118Z,0.40
2023-04-26T01:48:07.471Z,1.00
2023-04-26T01:50:34.468Z,0.52
2023-04-26T01:53:01.396Z,0.60
2023-04-26T01:55:28.303Z,0.60
2023-04-26T01:57:55.169Z,0.60
2023-04-26T02:00:22.352Z,0.70
2023-04-26T02:02:49.446Z,0.77
2023-04-26T02:05:16.621Z,0.55
2023-04-26T02:07:43.590Z,1.00
2023-04-26T02:10:10.780Z,0.70
2023-04-26T02:12:37.893Z,0.65
2023-04-26T02:15:05.233Z,0.70
2023-04-26T02:17:32.949Z,1.10
2023-04-26T02:19:59.848Z,1.00
2023-04-26T02:22:27.010Z,0.77
2023-04-26T02:24:54.004Z,1.10
2023-04-26T02:27:20.936Z,0.68
2023-04-26T02:29:47.946Z,1.00
2023-04-26T02:32:14.981Z,0.80
2023-04-26T02:34:44.711Z,1.10
2023-04-26T02:37:12.122Z,0.80
2023-04-26T02:39:39.235Z,1.00
2023-04-26T02:42:10.716Z,1.00
2023-04-26T02:44:39.699Z,1.08
2023-04-26T02:47:07.423Z,0.80
2023-04-26T02:49:34.782Z,1.10
2023-04-26T02:52:01.650Z,0.98
2023-04-26T02:54:28.491Z,1.00
2023-04-26T02:56:55.423Z,1.00
2023-04-26T02:59:22.458Z,0.82
2023-04-26T03:01:49.457Z,1.00
2023-04-26T03:04:17.806Z,1.20
2023-04-26T03:06:45.227Z,0.93
2023-04-26T03:09:12.178Z,0.93
2023-04-26T03:11:39.109Z,0.98
2023-04-26T03:14:06.083Z,0.88
2023-04-26T03:16:42.441Z,1.10
2023-04-26T03:19:09.385Z,0.95
2023-04-26T03:21:37.486Z,1.38
2023-04-26T03:24:04.666Z,1.15
2023-04-26T03:26:31.648Z,1.20
2023-04-26T03:28:58.619Z,1.20
2023-04-26T03:31:25.666Z,1.13
2023-04-26T03:33:52.713Z,1.00
2023-04-26T03:36:19.570Z,0.90
2023-04-26T03:38:46.482Z,1.15
2023-04-26T03:41:13.846Z,1.30
2023-04-26T03:43:41.097Z,1.15
2023-04-26T03:46:07.982Z,1.10
2023-04-26T03:48:35.070Z,1.00
2023-04-26T03:51:02.509Z,1.17
2023-04-26T03:53:29.841Z,1.25
2023-04-26T03:55:56.915Z,0.80
2023-04-26T03:58:27.041Z,1.50
2023-04-26T04:00:58.584Z,1.38
2023-04-26T04:03:26.241Z,1.23
2023-04-26T04:05:53.670Z,1.20
2023-04-26T04:08:20.665Z,1.10
2023-04-26T04:10:47.526Z,1.30
2023-04-26T04:13:14.734Z,1.35
2023-04-26T04:15:42.089Z,1.23
2023-04-26T04:18:09.407Z,1.45
2023-04-26T04:20:36.455Z,1.33
2023-04-26T04:23:06.293Z,1.50
2023-04-26T04:25:33.389Z,1.08
2023-04-26T04:28:02.046Z,1.30
2023-04-26T04:30:29.768Z,1.30
2023-04-26T04:32:59.361Z,1.42
2023-04-26T04:35:29.299Z,1.33
2023-04-26T04:37:59.398Z,1.98
2023-04-26T04:40:27.298Z,1.73
2023-04-26T04:42:55.626Z,1.45
2023-04-26T04:45:23.078Z,1.67
2023-04-26T04:47:50.011Z,1.45
2023-04-26T04:50:17.720Z,1.52
2023-04-26T04:52:44.707Z,1.80
2023-04-26T04:55:12.638Z,1.63
2023-04-26T04:57:42.765Z,1.55
2023-04-26T05:00:10.808Z,1.45
2023-04-26T05:02:38.021Z,1.00
2023-04-26T05:05:05.850Z,1.40
2023-04-26T05:07:33.245Z,1.05
2023-04-26T05:10:00.531Z,1.35
2023-04-26T05:12:27.701Z,1.35
2023-04-26T05:14:55.218Z,1.38
2023-04-26T05:17:22.624Z,1.60
2023-04-26T05:19:49.952Z,1.45
2023-04-26T05:22:18.681Z,1.50
2023-04-26T05:24:49.208Z,1.33
2023-04-26T05:27:16.393Z,1.33
2023-04-26T05:29:43.838Z,1.20
2023-04-26T05:32:10.900Z,1.50
2023-04-26T05:34:38.679Z,1.10
2023-04-26T05:37:06.199Z,1.20
2023-04-26T05:39:36.378Z,1.08
2023-04-26T05:42:03.599Z,1.60
2023-04-26T05:44:30.722Z,1.15
2023-04-26T05:46:57.658Z,1.10
2023-04-26T05:49:24.618Z,1.20
2023-04-26T05:51:51.895Z,1.10
2023-04-26T05:54:18.837Z,1.30
2023-04-26T05:56:45.888Z,1.40
2023-04-26T05:59:13.689Z,1.48
2023-04-26T06:01:41.110Z,1.30
2023-04-26T06:04:08.990Z,1.50
2023-04-26T06:06:37.087Z,1.75
2023-04-26T06:09:04.630Z,1.80
2023-04-26T06:11:31.476Z,1.95
2023-04-26T06:13:58.391Z,2.33
2023-04-26T06:16:25.394Z,1.83
2023-04-26T06:18:55.425Z,1.70
2023-04-26T06:21:22.441Z,1.63
2023-04-26T06:23:49.672Z,2.00
2023-04-26T06:26:16.548Z,1.30
2023-04-26T06:28:43.484Z,1.40
2023-04-26T06:31:10.450Z,1.27
2023-04-26T06:33:37.405Z,1.20
2023-04-26T06:36:04.593Z,1.10
2023-04-26T06:38:31.901Z,1.20
2023-04-26T06:40:58.738Z,1.50
2023-04-26T06:43:26.185Z,0.90
2023-04-26T06:45:53.041Z,1.10
2023-04-26T06:48:20.697Z,1.02
2023-04-26T06:50:47.556Z,1.48
2023-04-26T06:53:14.576Z,1.10
2023-04-26T06:55:41.454Z,2.35
2023-04-26T06:58:08.552Z,0.85
2023-04-26T07:00:35.732Z,1.00
2023-04-26T07:03:03.715Z,1.00
2023-04-26T07:05:31.529Z,1.13
2023-04-26T07:07:58.501Z,1.20
2023-04-26T07:10:26.157Z,1.70
2023-04-26T07:12:54.083Z,1.40
2023-04-26T07:15:21.505Z,1.65
2023-04-26T07:17:48.532Z,1.65
2023-04-26T07:20:19.807Z,1.95
2023-04-26T07:22:47.441Z,1.27
2023-04-26T07:25:14.589Z,0.82
2023-04-26T07:27:41.510Z,0.98
2023-04-26T07:30:14.591Z,1.00
2023-04-26T07:32:41.576Z,1.05
2023-04-26T07:35:10.642Z,0.90
2023-04-26T07:37:37.660Z,0.98
2023-04-26T07:40:06.029Z,0.70
2023-04-26T07:42:32.937Z,0.60
2023-04-26T07:45:00.350Z,1.92
2023-04-26T07:47:27.428Z,2.45
2023-04-26T07:49:54.822Z,2.80
2023-04-26T07:52:21.828Z,0.93
2023-04-26T07:54:48.693Z,0.77
2023-04-26T07:57:16.651Z,0.82
2023-04-26T07:59:43.530Z,1.00
2023-04-26T08:02:10.692Z,0.68
2023-04-26T08:04:37.751Z,6.60
2023-04-26T08:07:04.881Z,11.10
2023-04-26T08:09:32.110Z,1.30
2023-04-26T08:11:59.129Z,5.53
2023-04-26T08:14:26.699Z,1.63
2023-04-26T08:16:54.140Z,1.08
2023-04-26T08:19:21.574Z,0.95
2023-04-26T08:21:48.487Z,1.35
2023-04-26T08:24:15.805Z,0.90
2023-04-26T08:26:42.592Z,1.13
2023-04-26T08:29:09.408Z,1.00
2023-04-26T08:31:36.801Z,0.73
2023-04-26T08:34:03.805Z,0.88
2023-04-26T08:36:32.545Z,1.02
2023-04-26T08:38:59.956Z,1.08
2023-04-26T08:41:27.582Z,0.70
2023-04-26T08:43:58.382Z,0.90
2023-04-26T08:46:26.930Z,0.90
2023-04-26T08:49:22.490Z,1.10
2023-04-26T08:51:53.513Z,1.00
2023-04-26T08:54:20.880Z,0.98
2023-04-26T08:56:48.848Z,1.08
2023-04-26T08:59:16.116Z,0.90
2023-04-26T09:01:44.153Z,0.90
2023-04-26T09:04:12.187Z,0.88
2023-04-26T09:06:39.668Z,0.75
2023-04-26T09:09:09.148Z,1.00
2023-04-26T09:11:59.914Z,1.25
2023-04-26T09:14:27.552Z,1.13
2023-04-26T09:16:55.214Z,1.27
2023-04-26T09:19:39.487Z,0.68
2023-04-26T09:22:07.465Z,1.27
2023-04-26T09:24:52.432Z,0.88
2023-04-26T09:27:20.077Z,1.35
2023-04-26T09:30:22.635Z,0.80
2023-04-26T09:32:55.953Z,0.70
2023-04-26T09:35:28.886Z,0.90
2023-04-26T09:38:12.622Z,0.70
2023-04-26T09:40:48.777Z,0.70
2023-04-26T09:43:17.830Z,0.82
2023-04-26T09:45:46.047Z,0.90
2023-04-26T09:48:30.936Z,0.90
2023-04-26T09:51:04.027Z,0.70
2023-04-26T09:53:37.504Z,0.70
2023-04-26T09:56:09.871Z,0.80
2023-04-26T09:58:39.353Z,0.75
2023-04-26T10:01:08.218Z,0.75
2023-04-26T10:03:37.420Z,0.70
2023-04-26T10:06:05.795Z,0.73
2023-04-26T10:08:33.468Z,0.88
2023-04-26T10:11:04.331Z,0.43
2023-04-26T10:13:35.321Z,0.70
2023-04-26T10:16:02.954Z,0.52
2023-04-26T10:18:31.702Z,0.85
2023-04-26T10:21:19.716Z,0.50
2023-04-26T10:23:48.962Z,0.93
2023-04-26T10:26:52.924Z,0.60
2023-04-26T10:29:21.213Z,0.95
2023-04-26T10:32:06.680Z,0.80
2023-04-26T10:34:35.354Z,0.80
2023-04-26T10:37:17.001Z,0.63
2023-04-26T10:39:45.951Z,0.73
2023-04-26T10:42:25.953Z,0.57
2023-04-26T10:45:00.577Z,0.80
2023-04-26T10:47:33.208Z,0.70
2023-04-26T10:50:11.232Z,0.80
2023-04-26T10:53:05.960Z,0.70
2023-04-26T10:55:43.347Z,0.70
2023-04-26T10:58:34.840Z,0.60
2023-04-26T11:01:06.436Z,0.60
2023-04-26T11:03:34.248Z,0.60
2023-04-26T11:06:05.760Z,0.50
2023-04-26T11:08:34.227Z,0.50
2023-04-26T11:11:03.992Z,0.32
2023-04-26T11:13:32.469Z,0.60
2023-04-26T11:16:07.157Z,0.65
2023-04-26T11:18:36.162Z,1.00
2023-04-26T11:21:04.973Z,0.63
2023-04-26T11:23:32.897Z,0.73
2023-04-26T11:26:04.055Z,0.70
2023-04-26T11:28:38.272Z,0.70
2023-04-26T11:31:07.520Z,0.50
2023-04-26T11:33:34.558Z,0.60
2023-04-26T11:36:02.681Z,0.68
2023-04-26T11:38:30.578Z,0.63
2023-04-26T11:41:02.375Z,0.88
2023-04-26T11:43:36.297Z,1.00
2023-04-26T11:46:04.753Z,0.95
2023-04-26T11:48:33.573Z,0.60
2023-04-26T11:51:02.972Z,0.75
2023-04-26T11:53:43.248Z,1.13
2023-04-26T11:56:17.857Z,0.50
2023-04-26T11:58:49.419Z,0.38
2023-04-26T12:01:24.159Z,0.60
2023-04-26T12:03:56.656Z,0.40
2023-04-26T12:06:50.852Z,0.70
2023-04-26T12:09:31.782Z,0.82
2023-04-26T12:12:01.098Z,0.70
2023-04-26T12:14:35.641Z,1.30
2023-04-26T12:17:04.639Z,0.43
2023-04-26T12:19:34.690Z,0.77
2023-04-26T12:22:01.761Z,0.60
2023-04-26T12:24:33.382Z,0.50
2023-04-26T12:27:02.976Z,0.30
2023-04-26T12:29:31.964Z,0.55
2023-04-26T12:32:02.893Z,1.33
2023-04-26T12:34:30.162Z,1.42
2023-04-26T12:36:57.716Z,1.65
2023-04-26T12:39:25.134Z,0.70
2023-04-26T12:41:52.520Z,1.00
2023-04-26T12:44:21.868Z,0.77
2023-04-26T12:46:50.089Z,0.50
2023-04-26T12:49:17.063Z,0.30
2023-04-26T12:51:43.879Z,1.85
2023-04-26T12:54:10.838Z,1.15
2023-04-26T12:56:43.681Z,0.50
2023-04-26T12:59:11.431Z,0.50
2023-04-26T13:01:38.393Z,0.75
2023-04-26T13:04:06.032Z,0.80
2023-04-26T13:06:33.635Z,0.50
2023-04-26T13:09:00.638Z,0.90
2023-04-26T13:11:28.094Z,0.50
2023-04-26T13:13:54.954Z,0.40
2023-04-26T13:16:21.909Z,0.88
2023-04-26T13:18:49.236Z,0.43
2023-04-26T13:21:16.150Z,0.60
2023-04-26T13:23:43.587Z,0.90
2023-04-26T13:26:10.796Z,0.55
2023-04-26T13:28:38.090Z,0.50
2023-04-26T13:31:06.480Z,1.00
2023-04-26T13:33:33.899Z,0.60
2023-04-26T13:36:00.826Z,0.38
2023-04-26T13:38:27.698Z,0.40
2023-04-26T13:40:54.592Z,0.57
2023-04-26T13:43:21.509Z,0.55
2023-04-26T13:45:48.827Z,0.52
2023-04-26T13:48:16.454Z,0.40
2023-04-26T13:50:44.191Z,0.50
2023-04-26T13:53:11.730Z,0.52
2023-04-26T13:55:38.705Z,0.40
2023-04-26T13:58:05.932Z,0.70
2023-04-26T14:00:32.768Z,2.63
2023-04-26T14:03:00.189Z,0.75
2023-04-26T14:05:27.851Z,1.13
2023-04-26T14:07:55.345Z,0.40
2023-04-26T14:10:22.378Z,0.80
2023-04-26T14:12:49.904Z,0.80
2023-04-26T14:15:17.158Z,0.70
2023-04-26T14:17:46.709Z,1.00
2023-04-26T14:20:13.715Z,0.70
2023-04-26T14:22:41.198Z,1.20
2023-04-26T14:25:08.452Z,0.68
2023-04-26T14:27:35.820Z,0.63
2023-04-26T14:30:02.785Z,0.40
2023-04-26T14:32:29.771Z,0.52
2023-04-26T14:34:56.947Z,0.68
2023-04-26T14:37:24.084Z,0.77
2023-04-26T14:39:51.664Z,0.80
2023-04-26T14:42:18.736Z,0.50
2023-04-26T14:44:46.618Z,0.60
2023-04-26T14:47:13.946Z,0.68
2023-04-26T14:49:41.246Z,0.68
2023-04-26T14:52:08.142Z,0.65
2023-04-26T14:54:41.881Z,0.57
2023-04-26T14:57:10.367Z,0.38
2023-04-26T14:59:37.742Z,0.52
2023-04-26T15:02:05.108Z,0.38
2023-04-26T15:04:32.892Z,0.55
2023-04-26T15:07:00.115Z,0.50
2023-04-26T15:09:29.732Z,0.40
2023-04-26T15:11:57.315Z,0.60
2023-04-26T15:14:24.342Z,0.40
2023-04-26T15:16:51.346Z,0.47
2023-04-26T15:19:18.744Z,0.90
2023-04-26T15:21:48.559Z,0.45
2023-04-26T15:24:15.884Z,0.30
2023-04-26T15:26:43.367Z,0.40
2023-04-26T15:29:10.737Z,0.60
2023-04-26T15:31:38.032Z,0.40
2023-04-26T15:34:05.382Z,0.98
2023-04-26T15:36:32.359Z,0.80
2023-04-26T15:38:59.285Z,1.33
2023-04-26T15:41:26.221Z,0.80
2023-04-26T15:43:56.563Z,0.55
2023-04-26T15:46:23.569Z,0.60
2023-04-26T15:48:50.870Z,0.50
2023-04-26T15:51:17.806Z,0.40
2023-04-26T15:53:45.327Z,0.75
2023-04-26T15:56:15.864Z,0.75
2023-04-26T15:58:45.173Z,0.60
2023-04-26T16:01:12.491Z,0.65
2023-04-26T16:03:39.958Z,0.60
2023-04-26T16:06:08.179Z,0.50
2023-04-26T16:08:40.461Z,0.50
2023-04-26T16:11:08.514Z,0.52
2023-04-26T16:13:35.984Z,0.60
2023-04-26T16:16:10.916Z,0.50
2023-04-26T16:18:43.756Z,0.82
2023-04-26T16:21:13.020Z,0.40
2023-04-26T16:23:41.702Z,0.70
2023-04-26T16:26:09.414Z,1.00
2023-04-26T16:28:36.460Z,0.90
2023-04-26T16:31:03.666Z,0.75
2023-04-26T16:33:31.107Z,0.65
2023-04-26T16:35:58.752Z,0.60
2023-04-26T16:38:26.096Z,0.40
2023-04-26T16:40:59.549Z,0.50
2023-04-26T16:43:27.220Z,0.50
2023-04-26T16:46:21.102Z,0.90
2023-04-26T16:48:48.739Z,0.73
2023-04-26T16:51:16.210Z,0.70
2023-04-26T16:53:43.663Z,0.82
2023-04-26T16:56:11.106Z,0.93
2023-04-26T16:58:38.434Z,0.98
2023-04-26T17:01:06.117Z,1.33
2023-04-26T17:03:33.649Z,1.40
2023-04-26T17:06:01.547Z,1.20
2023-04-26T17:08:28.649Z,0.88
2023-04-26T17:10:56.142Z,1.10
2023-04-26T17:13:24.264Z,1.20
2023-04-26T17:15:51.769Z,1.45
2023-04-26T17:18:18.755Z,1.35
2023-04-26T17:20:45.636Z,1.23
2023-04-26T17:23:12.630Z,1.02
2023-04-26T17:25:39.932Z,1.60
2023-04-26T17:28:08.562Z,1.80
2023-04-26T17:30:35.604Z,1.20
2023-04-26T17:33:03.346Z,2.20
2023-04-26T17:35:30.921Z,1.35
2023-04-26T17:37:59.617Z,1.33
2023-04-26T17:40:26.868Z,1.83
2023-04-26T17:42:54.662Z,1.83
2023-04-26T17:45:21.898Z,1.17
2023-04-26T17:47:48.890Z,1.00
2023-04-26T17:50:16.036Z,1.15
2023-04-26T17:52:42.938Z,0.70
2023-04-26T17:55:10.297Z,0.85
2023-04-26T17:57:37.674Z,1.10
2023-04-26T18:00:06.812Z,1.33
2023-04-26T18:02:36.349Z,1.30
2023-04-26T18:05:05.099Z,1.38
2023-04-26T18:07:32.160Z,1.90
2023-04-26T18:09:59.121Z,3.50
2023-04-26T18:12:26.633Z,7.22
2023-04-26T18:14:53.650Z,2.67
2023-04-26T18:17:20.750Z,2.30
2023-04-26T18:19:47.695Z,3.00
2023-04-26T18:22:16.413Z,3.22
2023-04-26T18:24:43.340Z,3.33
2023-04-26T18:27:12.534Z,3.00
2023-04-26T18:29:39.558Z,4.03
2023-04-26T18:32:06.497Z,3.40
2023-04-26T18:34:33.304Z,3.50
2023-04-26T18:37:00.591Z,3.35
2023-04-26T18:39:27.565Z,3.60
2023-04-26T18:41:54.382Z,2.90
2023-04-26T18:44:21.362Z,2.97
2023-04-26T18:46:48.402Z,3.13
2023-04-26T18:49:15.447Z,3.60
2023-04-26T18:51:43.578Z,3.72
2023-04-26T18:54:11.101Z,3.72
2023-04-26T18:56:38.417Z,4.63
2023-04-26T18:59:05.348Z,3.58
2023-04-26T19:01:32.292Z,4.45
2023-04-26T19:03:59.955Z,4.50
2023-04-26T19:06:28.244Z,6.80
2023-04-26T19:08:55.533Z,7.57
2023-04-26T19:11:22.392Z,8.70
2023-04-26T19:13:49.725Z,8.93
2023-04-26T19:16:17.442Z,7.85
2023-04-26T19:18:44.371Z,5.20
2023-04-26T19:21:11.537Z,5.63
2023-04-26T19:23:41.608Z,5.50
2023-04-26T19:26:12.418Z,4.40
2023-04-26T19:28:39.597Z,4.82
2023-04-26T19:31:06.768Z,4.85
2023-04-26T19:33:34.220Z,4.95
2023-04-26T19:36:01.213Z,4.82
2023-04-26T19:38:28.637Z,5.03
2023-04-26T19:40:55.532Z,4.82
2023-04-26T19:43:23.990Z,9.48
2023-04-26T19:45:50.834Z,5.75
2023-04-26T19:48:17.771Z,5.55
2023-04-26T19:50:46.219Z,6.05
2023-04-26T19:53:14.738Z,5.57
2023-04-26T19:55:42.733Z,6.25
2023-04-26T19:58:13.315Z,6.60
2023-04-26T20:00:40.679Z,9.57
2023-04-26T20:03:08.404Z,7.78
2023-04-26T20:05:35.619Z,7.80
2023-04-26T20:08:02.664Z,8.55
2023-04-26T20:10:34.221Z,10.18
2023-04-26T20:13:01.594Z,7.45
2023-04-26T20:15:29.836Z,9.13
2023-04-26T20:17:58.040Z,8.77
2023-04-26T20:20:25.616Z,7.25
2023-04-26T20:22:52.640Z,7.20
2023-04-26T20:25:20.076Z,7.10
2023-04-26T20:27:47.923Z,5.95
2023-04-26T20:30:15.823Z,6.50
2023-04-26T20:32:43.359Z,6.60
2023-04-26T20:35:11.683Z,5.75
2023-04-26T20:37:38.656Z,6.00
2023-04-26T20:40:06.752Z,7.05
2023-04-26T20:42:33.633Z,7.15
2023-04-26T20:45:02.184Z,6.20
2023-04-26T20:47:30.288Z,6.55
2023-04-26T20:49:57.766Z,7.10
2023-04-26T20:52:24.733Z,7.53
2023-04-26T20:54:51.682Z,9.85
2023-04-26T20:57:18.600Z,7.90
2023-04-26T20:59:48.759Z,6.40
2023-04-26T21:02:16.145Z,6.75
2023-04-26T21:04:43.809Z,7.05
2023-04-26T21:07:11.323Z,6.20
2023-04-26T21:09:39.089Z,5.85
2023-04-26T21:12:06.729Z,5.82
2023-04-26T21:14:34.308Z,5.65
2023-04-26T21:21:15.517Z,6.55
2023-04-26T21:23:42.872Z,7.45
2023-04-26T21:26:09.829Z,9.13
2023-04-26T21:28:37.070Z,9.48
2023-04-26T21:31:07.811Z,12.40
2023-04-26T21:33:35.255Z,11.77
2023-04-26T21:36:02.532Z,10.02
2023-04-26T21:38:29.488Z,9.70
2023-04-26T21:40:56.408Z,8.07
2023-04-26T21:43:23.480Z,8.93
2023-04-26T21:45:52.352Z,7.82
2023-04-26T21:48:19.303Z,7.90
2023-04-26T21:50:49.795Z,7.82
2023-04-26T21:53:17.287Z,8.93
2023-04-26T21:55:47.602Z,9.18
2023-04-26T21:58:14.418Z,8.38
2023-04-26T22:00:41.480Z,6.68
2023-04-26T22:03:08.532Z,6.65
2023-04-26T22:05:35.871Z,7.13
2023-04-26T22:08:02.814Z,6.80
2023-04-26T22:10:29.757Z,7.03
2023-04-26T22:12:56.643Z,7.32
2023-04-26T22:15:23.626Z,6.95
2023-04-26T22:17:50.457Z,6.35
2023-04-26T22:20:17.464Z,5.70
2023-04-26T22:22:44.855Z,6.03
2023-04-26T22:25:11.869Z,5.35
2023-04-26T22:27:38.787Z,5.40
2023-04-26T22:30:23.089Z,5.32
2023-04-26T22:33:00.846Z,5.50
2023-04-26T22:35:30.100Z,5.05
2023-04-26T22:37:57.121Z,5.75
2023-04-26T22:40:23.992Z,5.80
2023-04-26T22:42:50.949Z,5.70
2023-04-26T22:45:17.962Z,5.50
2023-04-26T22:47:45.040Z,5.28
2023-04-26T22:50:12.416Z,5.43
2023-04-26T22:52:39.846Z,5.47
2023-04-26T22:55:07.361Z,5.45
2023-04-26T22:57:34.197Z,5.13
2023-04-26T23:00:01.090Z,5.43
2023-04-26T23:02:28.179Z,5.13
2023-04-26T23:04:55.752Z,5.13
2023-04-26T23:07:22.661Z,5.03
2023-04-26T23:09:50.095Z,6.20
2023-04-26T23:12:19.455Z,5.63
2023-04-26T23:14:47.865Z,5.78
2023-04-26T23:17:14.860Z,5.45
2023-04-26T23:19:42.312Z,6.07
2023-04-26T23:22:09.586Z,6.90
2023-04-26T23:24:36.503Z,5.60
2023-04-26T23:27:03.863Z,5.22
2023-04-26T23:29:30.897Z,4.68
2023-04-26T23:31:58.056Z,5.25
2023-04-26T23:34:25.069Z,4.20
2023-04-26T23:36:52.361Z,5.20
2023-04-26T23:39:19.371Z,4.60
2023-04-26T23:41:46.474Z,4.70
2023-04-26T23:44:13.384Z,4.43
2023-04-26T23:46:40.485Z,4.97
2023-04-26T23:49:07.492Z,5.00
2023-04-26T23:51:34.487Z,5.30
2023-04-26T23:54:01.497Z,4.47
2023-04-26T23:56:28.375Z,4.78
2023-04-26T23:58:55.234Z,4.50
